YHI weather

Ulukhaktok Holman Airport
Ulukhaktok, Northwest Territories, Canada

Public forecast

Using degrees Celsius for public forecast. Weather courtesy of forecast.io.

Current aviation weather report (METAR) for Ulukhaktok Holman Airport

Retrieved 2019/12/10 04:00 UTC (49 minutes ago):

CYHI 100400Z 02007KT 15SM SKC M30/M33 A3049 RMK SLP334

Aviation forecast (TAF) for Ulukhaktok Holman Airport

Forecast is more than 6 hours old.

Retrieved 2019/12/09 19:00 UTC (10 hours ago):

TAF CYHI 091838Z 0919/1001 05007KT P6SM SKC TEMPO 0919/1001 5SM IC RMK NXT FCST WILL BE ISSUED AT 101645Z